Time;durP1;ratioP1;P1;durP2;ratioP2;P2;SDS_P1;SDS_P2;PMS_P1;PMS_P2;Temp;Humidity;BMP_temperature;BMP_pressure;BME280_temperature;BME280_humidity;BME280_pressure;Samples;Min_cycle;Max_cycle;Signal;HPM_P1;HPM_P2
2023/08/04 00:01:24;;;;;;;;;;;;;;;14.56;100.00;100929.19;5051299;28;1228;-72
2023/08/04 00:03:50;;;;;;;;;;;;;;;14.54;100.00;100925.91;5056791;28;1292;-73
2023/08/04 00:06:15;;;;;;;;;;;;;;;14.49;100.00;100928.16;5041799;28;1901;-74
2023/08/04 00:08:40;;;;;;;;;;;;;;;14.49;100.00;100938.59;5055247;28;1103;-73
2023/08/04 00:11:05;;;;;;;;;;;;;;;14.48;100.00;100936.94;5034169;28;1526;-73
2023/08/04 00:13:31;;;;;;;;;;;;;;;14.47;100.00;100932.69;5055323;28;1720;-72
2023/08/04 00:16:09;;;;;;;;;;;;;;;14.48;100.00;100942.16;5057957;28;1610;-73
2023/08/04 00:18:34;;;;;;;;;;;;;;;14.47;100.00;100941.34;5059713;28;2114;-73
2023/08/04 00:20:59;;;;;;;;;;;;;;;14.44;100.00;100941.59;5054945;28;1072;-73
2023/08/04 00:23:24;;;;;;;;;;;;;;;14.43;100.00;100944.38;5033323;28;1329;-73
2023/08/04 00:25:49;;;;;;;;;;;;;;;14.42;100.00;100947.94;5054749;28;1898;-73
2023/08/04 00:28:15;;;;;;;;;;;;;;;14.39;100.00;100943.00;5055878;28;1658;-73
2023/08/04 00:30:40;;;;;;;;;;;;;;;14.37;100.00;100939.72;5052233;28;1264;-73
2023/08/04 00:33:05;;;;;;;;;;;;;;;14.32;100.00;100938.38;5039703;28;1273;-74
2023/08/04 00:35:30;;;;;;;;;;;;;;;14.31;100.00;100947.19;5042418;28;1245;-73
2023/08/04 00:37:55;;;;;;;;;;;;;;;14.29;100.00;100943.91;5053772;28;1161;-73
2023/08/04 00:40:21;;;;;;;;;;;;;;;14.26;100.00;100944.19;5052166;28;920;-73
2023/08/04 00:42:46;;;;;;;;;;;;;;;14.24;100.00;100946.13;5055766;28;1124;-74
2023/08/04 00:45:11;;;;;;;;;;;;;;;14.20;100.00;100949.16;5052118;28;1961;-73
2023/08/04 00:47:38;;;;;;;;;;;;;;;14.19;100.00;100948.34;5056515;28;1058;-73
2023/08/04 00:50:04;;;;;;;;;;;;;;;14.15;100.00;100954.81;5052718;28;1170;-73
2023/08/04 00:52:30;;;;;;;;;;;;;;;14.15;100.00;100954.81;5057844;28;1362;-72
2023/08/04 00:54:55;;;;;;;;;;;;;;;14.14;100.00;100955.78;5052247;28;1158;-74
2023/08/04 00:57:20;;;;;;;;;;;;;;;14.16;100.00;100968.66;5053318;28;1032;-72
2023/08/04 00:59:45;;;;;;;;;;;;;;;14.12;100.00;100957.72;5058303;28;1106;-73
2023/08/04 01:02:10;;;;;;;;;;;;;;;14.10;100.00;100967.47;5064235;28;1201;-73
2023/08/04 01:04:36;;;;;;;;;;;;;;;14.03;100.00;100969.00;5058958;28;1153;-73
2023/08/04 01:07:07;;;;;;;;;;;;;;;14.00;100.00;100974.53;5061324;28;1961;-73
2023/08/04 01:09:51;;;;;;;;;;;;;;;13.98;100.00;100968.63;5043607;28;1361;-73
2023/08/04 01:12:17;;;;;;;;;;;;;;;13.95;100.00;100966.31;5062305;28;1276;-72
2023/08/04 01:14:44;;;;;;;;;;;;;;;13.91;100.00;100970.16;5066017;28;1228;-72
2023/08/04 01:17:35;;;;;;;;;;;;;;;13.89;100.00;100977.31;5039781;28;1315;-74
2023/08/04 01:20:01;;;;;;;;;;;;;;;13.85;100.00;100976.78;5058121;28;1386;-73
2023/08/04 01:22:26;;;;;;;;;;;;;;;13.84;100.00;100974.31;5063124;28;1238;-74
2023/08/04 01:24:52;;;;;;;;;;;;;;;13.86;100.00;100988.03;5057475;28;1413;-73
2023/08/04 01:27:21;;;;;;;;;;;;;;;13.82;100.00;100983.09;5042308;28;1921;-72
2023/08/04 01:29:46;;;;;;;;;;;;;;;13.79;100.00;100985.97;5044493;28;1353;-73
2023/08/04 01:32:12;;;;;;;;;;;;;;;13.76;100.00;100983.69;5057747;28;1203;-73
2023/08/04 01:34:39;;;;;;;;;;;;;;;13.74;100.00;100985.59;5056566;28;1649;-76
2023/08/04 01:37:04;;;;;;;;;;;;;;;13.70;100.00;100994.63;5053445;28;1282;-74
2023/08/04 01:39:29;;;;;;;;;;;;;;;13.71;100.00;100990.28;5049494;28;1276;-73
2023/08/04 01:41:55;;;;;;;;;;;;;;;13.70;100.00;100997.25;5059665;28;1081;-74
2023/08/04 01:44:20;;;;;;;;;;;;;;;13.69;100.00;101003.44;5054267;28;1252;-73
2023/08/04 01:46:45;;;;;;;;;;;;;;;13.69;100.00;100998.22;5056713;28;1893;-73
2023/08/04 01:49:10;;;;;;;;;;;;;;;13.67;100.00;100994.94;5059205;28;1473;-72
2023/08/04 01:51:36;;;;;;;;;;;;;;;13.67;100.00;100999.34;5060683;28;1459;-73
2023/08/04 01:54:01;;;;;;;;;;;;;;;13.68;100.00;100995.75;5062119;28;1218;-73
2023/08/04 01:56:26;;;;;;;;;;;;;;;13.66;100.00;100997.69;5057148;28;1326;-73
2023/08/04 01:58:52;;;;;;;;;;;;;;;13.64;100.00;100999.59;5057367;28;1212;-74
2023/08/04 02:01:17;;;;;;;;;;;;;;;13.63;100.00;100993.56;5062971;28;1296;-73
2023/08/04 02:03:42;;;;;;;;;;;;;;;13.64;100.00;100997.81;5041991;28;1668;-72
2023/08/04 02:06:08;;;;;;;;;;;;;;;13.64;100.00;100995.19;5059602;28;1893;-72
2023/08/04 02:08:33;;;;;;;;;;;;;;;13.66;100.00;100998.50;5058741;28;1168;-72
2023/08/04 02:10:58;;;;;;;;;;;;;;;13.64;100.00;100995.19;5059837;28;1185;-74
2023/08/04 02:13:23;;;;;;;;;;;;;;;13.64;100.00;101008.22;5060382;28;1098;-72
2023/08/04 02:15:48;;;;;;;;;;;;;;;13.63;100.00;101003.16;5057750;28;1096;-73
2023/08/04 02:18:14;;;;;;;;;;;;;;;13.61;100.00;101005.94;5062016;28;1282;-73
2023/08/04 02:20:39;;;;;;;;;;;;;;;13.61;100.00;101005.94;5057066;28;1451;-72
2023/08/04 02:23:04;;;;;;;;;;;;;;;13.63;100.00;101011.00;5060011;28;1485;-73
2023/08/04 02:25:29;;;;;;;;;;;;;;;13.63;100.00;101014.41;5059984;28;1953;-72
2023/08/04 02:27:54;;;;;;;;;;;;;;;13.66;100.00;101013.34;5055998;28;1099;-73
2023/08/04 02:30:20;;;;;;;;;;;;;;;13.67;100.00;101009.75;5055865;28;1291;-73
2023/08/04 02:32:45;;;;;;;;;;;;;;;13.67;100.00;101005.38;5053702;28;1376;-72
2023/08/04 02:35:10;;;;;;;;;;;;;;;13.68;100.00;101014.81;5052663;28;1320;-74
2023/08/04 02:37:35;;;;;;;;;;;;;;;13.70;100.00;101012.88;5054246;28;1172;-72
2023/08/04 02:40:00;;;;;;;;;;;;;;;13.74;100.00;101019.47;5055860;28;1059;-73
2023/08/04 02:42:26;;;;;;;;;;;;;;;13.78;100.00;101023.44;5058084;28;1165;-73
2023/08/04 02:44:52;;;;;;;;;;;;;;;13.80;100.00;101021.50;5035005;28;1273;-73
2023/08/04 02:47:17;;;;;;;;;;;;;;;13.80;100.00;101026.72;5059246;28;1922;-73
2023/08/04 02:49:42;;;;;;;;;;;;;;;13.80;100.00;101029.34;5060398;28;1146;-73
2023/08/04 02:52:14;;;;;;;;;;;;;;;13.82;100.00;101035.25;5058961;28;1148;-72
2023/08/04 02:54:39;;;;;;;;;;;;;;;13.84;100.00;101031.66;5056149;28;1475;-73
2023/08/04 02:57:04;;;;;;;;;;;;;;;13.85;100.00;101033.31;5066874;28;1127;-73
2023/08/04 02:59:29;;;;;;;;;;;;;;;13.85;100.00;101038.53;5058171;28;1205;-73
2023/08/04 03:01:55;;;;;;;;;;;;;;;13.86;100.00;101034.94;5060094;28;1314;-73
2023/08/04 03:04:20;;;;;;;;;;;;;;;13.84;100.00;101031.66;5038347;28;1255;-73
2023/08/04 03:06:45;;;;;;;;;;;;;;;13.85;100.00;101038.53;5054735;28;1977;-74
2023/08/04 03:09:10;;;;;;;;;;;;;;;13.85;100.00;101039.34;5057685;28;1108;-73
2023/08/04 03:11:35;;;;;;;;;;;;;;;13.86;100.00;101040.16;5059856;28;1377;-74
2023/08/04 03:14:00;;;;;;;;;;;;;;;13.85;100.00;101038.53;5063901;28;1476;-73
2023/08/04 03:16:26;;;;;;;;;;;;;;;13.87;100.00;101036.59;5061876;28;1295;-75
2023/08/04 03:18:51;;;;;;;;;;;;;;;13.85;100.00;101038.53;5061038;28;1243;-73
2023/08/04 03:21:16;;;;;;;;;;;;;;;13.84;100.00;101037.69;5059774;28;1397;-74
2023/08/04 03:23:41;;;;;;;;;;;;;;;13.82;100.00;101035.25;5054449;28;1277;-74
2023/08/04 03:26:06;;;;;;;;;;;;;;;13.82;100.00;101048.28;5057081;28;1898;-74
2023/08/04 03:28:31;;;;;;;;;;;;;;;13.82;100.00;101044.84;5051060;28;1018;-73
2023/08/04 03:30:57;;;;;;;;;;;;;;;13.82;100.00;101050.88;5032952;28;1478;-73
2023/08/04 03:33:22;;;;;;;;;;;;;;;13.81;100.00;101049.22;5050174;28;1252;-74
2023/08/04 03:35:47;;;;;;;;;;;;;;;13.83;100.00;101051.72;5054731;28;1083;-73
2023/08/04 03:38:12;;;;;;;;;;;;;;;13.82;100.00;101053.50;5056613;28;1360;-73
2023/08/04 03:40:37;;;;;;;;;;;;;;;13.83;100.00;101054.31;5058163;28;1343;-75
2023/08/04 03:43:03;;;;;;;;;;;;;;;13.84;100.00;101052.53;5054910;28;1268;-73
2023/08/04 03:45:28;;;;;;;;;;;;;;;13.84;100.00;101057.75;5055106;28;1893;-72
2023/08/04 03:47:53;;;;;;;;;;;;;;;13.85;100.00;101057.59;5056757;28;1371;-73
2023/08/04 03:50:19;;;;;;;;;;;;;;;13.85;100.00;101056.78;5058726;28;1139;-73
2023/08/04 03:52:44;;;;;;;;;;;;;;;13.84;100.00;101047.31;5042506;28;1392;-73
2023/08/04 03:55:09;;;;;;;;;;;;;;;13.87;100.00;101052.22;5050962;28;1281;-73
2023/08/04 03:57:34;;;;;;;;;;;;;;;13.87;100.00;101053.06;5053126;28;1361;-73
2023/08/04 04:00:01;;;;;;;;;;;;;;;13.88;100.00;101046.03;5054680;28;1394;-73
2023/08/04 04:02:26;;;;;;;;;;;;;;;13.89;100.00;101050.31;5057475;28;1394;-73
2023/08/04 04:04:51;;;;;;;;;;;;;;;13.90;100.00;101057.19;5039739;28;1557;-73
2023/08/04 04:07:16;;;;;;;;;;;;;;;13.88;100.00;101057.31;5035007;28;1961;-74
2023/08/04 04:09:41;;;;;;;;;;;;;;;13.88;100.00;101059.09;5059321;28;1152;-73
2023/08/04 04:12:07;;;;;;;;;;;;;;;13.88;100.00;101059.09;5040132;28;1304;-74
2023/08/04 04:14:32;;;;;;;;;;;;;;;13.89;100.00;101055.53;5060139;28;1434;-75
2023/08/04 04:16:57;;;;;;;;;;;;;;;13.90;100.00;101057.19;5058759;28;1537;-74
2023/08/04 04:19:22;;;;;;;;;;;;;;;13.90;100.00;101062.41;5040268;28;1262;-73
2023/08/04 04:21:47;;;;;;;;;;;;;;;13.89;100.00;101060.75;5040013;28;1155;-73
2023/08/04 04:24:13;;;;;;;;;;;;;;;13.89;100.00;101065.97;5034783;28;1365;-73
2023/08/04 04:26:38;;;;;;;;;;;;;;;13.88;100.00;101067.75;5053525;28;1971;-74
2023/08/04 04:29:03;;;;;;;;;;;;;;;13.88;100.00;101074.72;5038567;28;1248;-73
2023/08/04 04:31:28;;;;;;;;;;;;;;;13.90;100.00;101080.66;5051266;28;1091;-73
2023/08/04 04:33:53;;;;;;;;;;;;;;;13.91;100.00;101080.50;5052967;28;1251;-74
2023/08/04 04:36:19;;;;;;;;;;;;;;;13.93;100.00;101077.75;5038782;28;1202;-73
2023/08/04 04:38:44;;;;;;;;;;;;;;;13.94;100.00;101084.63;5057910;28;1074;-75
2023/08/04 04:41:09;;;;;;;;;;;;;;;13.95;100.00;101086.25;5061820;28;1287;-73
2023/08/04 04:43:35;;;;;;;;;;;;;;;13.96;100.00;101088.72;5059535;28;1089;-73
2023/08/04 04:46:00;;;;;;;;;;;;;;;13.97;100.00;101086.94;5058373;28;1918;-73
2023/08/04 04:48:26;;;;;;;;;;;;;;;13.99;100.00;101091.06;5066242;28;1507;-73
2023/08/04 04:50:51;;;;;;;;;;;;;;;14.01;100.00;101096.13;5059229;28;1768;-74
2023/08/04 04:53:16;;;;;;;;;;;;;;;14.02;100.00;101092.56;5055509;28;1234;-74
2023/08/04 04:55:41;;;;;;;;;;;;;;;14.04;100.00;101095.84;5059378;28;1423;-73
2023/08/04 04:58:07;;;;;;;;;;;;;;;14.04;100.00;101095.84;5053241;28;1008;-73
2023/08/04 05:00:34;;;;;;;;;;;;;;;14.05;100.00;101103.53;5057239;28;1071;-73
2023/08/04 05:02:59;;;;;;;;;;;;;;;14.09;100.00;101098.84;5041487;28;1189;-73
2023/08/04 05:05:24;;;;;;;;;;;;;;;14.11;100.00;101096.94;5057857;28;1894;-73
2023/08/04 05:07:49;;;;;;;;;;;;;;;14.15;100.00;101097.47;5037065;23;1860;-73
2023/08/04 05:10:14;;;;;;;;;;;;;;;14.19;100.00;101104.88;5028861;28;1351;-73
2023/08/04 05:12:40;;;;;;;;;;;;;;;14.22;100.00;101098.53;5030398;28;1020;-74
2023/08/04 05:15:05;;;;;;;;;;;;;;;14.27;100.00;101107.56;5024303;28;1493;-73
2023/08/04 05:17:30;;;;;;;;;;;;;;;14.31;100.00;101101.13;5029164;28;1585;-73
2023/08/04 05:19:55;;;;;;;;;;;;;;;14.35;100.00;101110.31;5025465;28;1359;-73
2023/08/04 05:22:21;;;;;;;;;;;;;;;14.39;100.00;101104.78;5027207;28;1073;-73
2023/08/04 05:24:46;;;;;;;;;;;;;;;14.41;100.00;101108.09;5027561;28;1212;-75
2023/08/04 05:27:11;;;;;;;;;;;;;;;14.44;100.00;101118.25;5027425;28;1918;-73
2023/08/04 05:29:37;;;;;;;;;;;;;;;14.47;100.00;101118.00;5027820;28;1189;-73
2023/08/04 05:32:02;;;;;;;;;;;;;;;14.50;100.00;101120.31;5023980;28;1251;-73
2023/08/04 05:34:27;;;;;;;;;;;;;;;14.51;100.00;101119.38;5026929;28;1177;-74
2023/08/04 05:36:52;;;;;;;;;;;;;;;14.55;100.00;101131.13;5027243;28;1181;-73
2023/08/04 05:39:18;;;;;;;;;;;;;;;14.56;100.00;101114.50;5026447;28;1321;-73
2023/08/04 05:41:47;;;;;;;;;;;;;;;14.59;100.00;101132.50;5025265;28;1227;-74
2023/08/04 05:44:13;;;;;;;;;;;;;;;14.61;100.00;101128.78;5025923;28;1711;-73
2023/08/04 05:46:38;;;;;;;;;;;;;;;14.65;100.00;101126.72;5024047;28;1894;-73
2023/08/04 05:49:03;;;;;;;;;;;;;;;14.68;100.00;101126.44;5024044;28;1328;-73
2023/08/04 05:51:30;;;;;;;;;;;;;;;14.72;100.00;101138.22;5026889;28;1404;-74
2023/08/04 05:53:55;;;;;;;;;;;;;;;14.75;100.00;101140.56;5029469;28;1089;-73
2023/08/04 05:56:20;;;;;;;;;;;;;;;14.76;100.00;101136.97;5026729;28;1173;-74
2023/08/04 05:58:45;;;;;;;;;;;;;;;14.79;100.00;101139.28;5025377;28;1212;-73
2023/08/04 06:01:10;;;;;;;;;;;;;;;14.82;100.00;101148.63;5028336;28;1172;-73
2023/08/04 06:03:36;;;;;;;;;;;;;;;14.85;100.00;101149.16;5029349;28;1350;-77
2023/08/04 06:06:01;;;;;;;;;;;;;;;14.88;100.00;101153.25;5025990;28;1946;-74
2023/08/04 06:08:26;;;;;;;;;;;;;;;14.92;100.00;101148.59;5020538;28;1431;-74
2023/08/04 06:10:51;;;;;;;;;;;;;;;14.96;100.00;101161.19;5023465;28;1296;-74
2023/08/04 06:13:17;;;;;;;;;;;;;;;15.00;100.00;101164.34;5026239;28;1352;-75
2023/08/04 06:15:42;;;;;;;;;;;;;;;15.02;100.00;101162.38;5017860;28;1402;-75
2023/08/04 06:18:07;;;;;;;;;;;;;;;15.07;100.00;101168.00;5019674;28;1293;-76
2023/08/04 06:20:33;;;;;;;;;;;;;;;15.13;100.00;101172.66;5023656;28;1412;-76
2023/08/04 06:22:58;;;;;;;;;;;;;;;15.18;100.00;101170.41;5015442;28;1316;-73
2023/08/04 06:25:23;;;;;;;;;;;;;;;15.21;100.00;101175.38;5017515;28;1969;-74
2023/08/04 06:27:49;;;;;;;;;;;;;;;15.24;100.00;101175.06;5025668;28;1071;-75
2023/08/04 06:30:15;;;;;;;;;;;;;;;15.27;100.00;101180.00;5023384;28;1428;-74
2023/08/04 06:32:40;;;;;;;;;;;;;;;15.30;100.00;101190.16;5025732;28;1225;-75
2023/08/04 06:35:06;;;;;;;;;;;;;;;15.37;100.00;101186.00;5026350;28;1413;-74
2023/08/04 06:37:31;;;;;;;;;;;;;;;15.33;100.00;101192.47;5029469;28;1243;-74
2023/08/04 06:39:56;;;;;;;;;;;;;;;15.36;100.00;101189.56;5027695;28;1290;-74
2023/08/04 06:42:22;;;;;;;;;;;;;;;15.41;100.00;101195.16;5029686;28;1024;-74
2023/08/04 06:44:47;;;;;;;;;;;;;;;15.47;100.00;101200.78;5029513;28;1130;-76
2023/08/04 06:47:12;;;;;;;;;;;;;;;15.44;100.00;101201.09;5025899;28;1910;-74
2023/08/04 06:49:38;;;;;;;;;;;;;;;15.43;100.00;101199.44;5024117;28;1198;-74
2023/08/04 06:52:03;;;;;;;;;;;;;;;15.44;100.00;101207.13;5027881;28;1299;-74
2023/08/04 06:54:29;;;;;;;;;;;;;;;15.45;100.00;101200.94;5027318;28;1068;-74
2023/08/04 06:56:54;;;;;;;;;;;;;;;15.49;100.00;101198.84;5027115;28;1138;-74
2023/08/04 06:59:19;;;;;;;;;;;;;;;15.54;100.00;101209.66;5027355;28;1155;-76
2023/08/04 07:01:44;;;;;;;;;;;;;;;15.56;100.00;101198.09;5029054;28;1238;-74
2023/08/04 07:04:09;;;;;;;;;;;;;;;15.61;100.00;101208.13;5023972;28;1506;-75
2023/08/04 07:06:35;;;;;;;;;;;;;;;15.65;100.00;101212.09;5027588;28;1969;-74
2023/08/04 07:09:00;;;;;;;;;;;;;;;15.66;100.00;101211.16;5027078;28;1034;-75
2023/08/04 07:11:25;;;;;;;;;;;;;;;15.69;100.00;101210.84;5023992;28;1384;-74
2023/08/04 07:13:50;;;;;;;;;;;;;;;15.72;100.00;101215.78;5023440;28;1733;-75
2023/08/04 07:16:15;;;;;;;;;;;;;;;15.77;100.00;101207.47;5023132;28;1181;-76
2023/08/04 07:18:41;;;;;;;;;;;;;;;15.82;100.00;101216.50;5025967;28;1295;-74
2023/08/04 07:21:10;;;;;;;;;;;;;;;15.87;100.00;101219.50;5023536;28;1303;-74
2023/08/04 07:23:35;;;;;;;;;;;;;;;15.97;100.00;101223.84;5021960;28;1324;-74
2023/08/04 07:26:02;;;;;;;;;;;;;;;16.03;100.00;101223.25;5024894;28;1894;-74
2023/08/04 07:28:27;;;;;;;;;;;;;;;16.06;100.00;101222.97;5019163;28;1153;-75
2023/08/04 07:30:52;;;;;;;;;;;;;;;16.08;100.00;101221.00;5025819;28;1186;-73
2023/08/04 07:33:17;;;;;;;;;;;;;;;16.11;100.00;101234.59;5025285;28;1224;-75
2023/08/04 07:35:43;;;;;;;;;;;;;;;16.11;100.00;101231.16;5028002;28;1010;-74
2023/08/04 07:38:08;;;;;;;;;;;;;;;16.14;100.00;101230.84;5025565;28;2193;-73
2023/08/04 07:40:37;;;;;;;;;;;;;;;16.19;100.00;101232.03;5025900;28;1328;-74
2023/08/04 07:43:02;;;;;;;;;;;;;;;16.18;100.00;101227.78;5025159;28;1423;-73
2023/08/04 07:45:28;;;;;;;;;;;;;;;16.22;100.00;101228.28;5023358;28;1919;-75
2023/08/04 07:47:53;;;;;;;;;;;;;;;16.31;100.00;101232.63;5025700;28;1209;-74
2023/08/04 07:50:18;;;;;;;;;;;;;;;16.37;100.00;101237.25;5025141;28;1649;-73
2023/08/04 07:52:43;;;;;;;;;;;;;;;16.46;100.00;101235.53;5025808;28;1172;-73
2023/08/04 07:55:09;;;;;;;;;;;;;;;16.55;100.00;101241.63;5022643;28;1182;-72
2023/08/04 07:57:34;;;;;;;;;;;;;;;16.67;100.00;101243.00;5023549;28;1291;-72
2023/08/04 07:59:59;;;;;;;;;;;;;;;16.66;100.00;101247.44;5022130;28;1480;-73
2023/08/04 08:02:24;;;;;;;;;;;;;;;16.76;100.00;101244.75;5024160;28;1193;-73
2023/08/04 08:04:49;;;;;;;;;;;;;;;16.69;100.00;101241.06;5025331;28;1228;-73
2023/08/04 08:07:15;;;;;;;;;;;;;;;16.69;100.00;101246.31;5019752;28;1893;-73
2023/08/04 08:09:40;;;;;;;;;;;;;;;16.73;100.00;101245.03;5016726;28;1248;-73
2023/08/04 08:12:05;;;;;;;;;;;;;;;16.71;100.00;101250.44;5024837;28;1205;-74
2023/08/04 08:14:30;;;;;;;;;;;;;;;16.73;100.00;101248.47;5021081;28;1304;-73
2023/08/04 08:16:56;;;;;;;;;;;;;;;16.76;100.00;101255.22;5020551;28;1503;-73
2023/08/04 08:19:21;;;;;;;;;;;;;;;16.87;100.00;101254.97;5018541;28;1758;-74
2023/08/04 08:21:47;;;;;;;;;;;;;;;16.81;100.00;101255.56;5025579;28;1232;-73
2023/08/04 08:24:12;;;;;;;;;;;;;;;16.86;100.00;101258.56;5023747;28;1204;-73
2023/08/04 08:26:37;;;;;;;;;;;;;;;16.88;99.53;101271.50;5020658;28;1898;-73
2023/08/04 08:29:02;;;;;;;;;;;;;;;16.91;99.89;101277.22;5023692;28;1285;-72
2023/08/04 08:31:28;;;;;;;;;;;;;;;16.93;99.51;101274.47;5022493;28;1275;-73
2023/08/04 08:33:53;;;;;;;;;;;;;;;16.92;99.87;101263.16;5012539;28;1561;-73
2023/08/04 08:36:19;;;;;;;;;;;;;;;16.96;98.71;101272.34;5022304;28;1057;-75
2023/08/04 08:38:44;;;;;;;;;;;;;;;16.89;98.36;101279.19;5020231;28;1279;-73
2023/08/04 08:41:11;;;;;;;;;;;;;;;16.95;99.35;101272.50;5015358;28;1321;-73
2023/08/04 08:43:36;;;;;;;;;;;;;;;16.98;98.00;101278.28;5025154;28;1200;-72
2023/08/04 08:46:02;;;;;;;;;;;;;;;17.06;98.48;101279.28;5026218;28;1906;-73
2023/08/04 08:48:29;;;;;;;;;;;;;;;17.06;99.12;101284.53;5028168;28;1182;-73
2023/08/04 08:50:58;;;;;;;;;;;;;;;17.10;99.18;101288.47;5024142;28;1410;-73
2023/08/04 08:53:25;;;;;;;;;;;;;;;17.16;98.68;101295.72;5026368;28;1081;-73
2023/08/04 08:55:50;;;;;;;;;;;;;;;17.21;98.83;101298.69;5023592;28;991;-72
2023/08/04 08:58:16;;;;;;;;;;;;;;;17.28;99.29;101298.88;5021692;28;1089;-74
2023/08/04 09:00:41;;;;;;;;;;;;;;;17.34;98.32;101291.22;5025889;28;928;-74
2023/08/04 09:03:06;;;;;;;;;;;;;;;17.33;98.28;101297.44;5023556;28;1341;-75
2023/08/04 09:05:32;;;;;;;;;;;;;;;17.30;95.05;101302.97;5024396;28;1953;-75
2023/08/04 09:07:57;;;;;;;;;;;;;;;17.27;96.11;101315.59;5020339;28;1319;-75
2023/08/04 09:10:23;;;;;;;;;;;;;;;17.18;93.76;101315.53;5021168;28;1292;-75
2023/08/04 09:12:49;;;;;;;;;;;;;;;17.03;92.80;101321.50;5022645;28;1593;-75
2023/08/04 09:15:15;;;;;;;;;;;;;;;16.86;92.77;101326.69;5019509;28;1129;-74
2023/08/04 09:17:40;;;;;;;;;;;;;;;16.67;91.00;101321.56;5020449;28;1160;-75
2023/08/04 09:20:09;;;;;;;;;;;;;;;16.58;92.48;101331.19;5025066;28;1343;-75
2023/08/04 09:22:39;;;;;;;;;;;;;;;16.53;93.65;101330.00;5037748;28;1397;-75
2023/08/04 09:25:05;;;;;;;;;;;;;;;16.45;93.24;101325.50;5042322;28;1391;-74
2023/08/04 09:27:34;;;;;;;;;;;;;;;16.45;94.61;101323.69;5037015;28;1946;-75
2023/08/04 09:30:03;;;;;;;;;;;;;;;16.43;93.06;101330.06;5045558;28;1073;-75
2023/08/04 09:32:29;;;;;;;;;;;;;;;16.46;95.13;101330.59;5039999;28;1089;-75
2023/08/04 09:35:01;;;;;;;;;;;;;;;16.53;95.56;101330.00;5039375;28;1248;-76
2023/08/04 09:37:27;;;;;;;;;;;;;;;16.59;95.14;101326.78;5037111;28;1202;-74
2023/08/04 09:39:52;;;;;;;;;;;;;;;16.61;95.06;101327.44;5040812;28;2305;-76
2023/08/04 09:42:19;;;;;;;;;;;;;;;16.64;94.52;101337.63;5039057;28;1203;-75
2023/08/04 09:44:49;;;;;;;;;;;;;;;16.77;95.35;101326.75;5038131;28;1346;-75
2023/08/04 09:47:14;;;;;;;;;;;;;;;16.98;94.88;101328.06;5041909;28;1995;-74
2023/08/04 09:49:39;;;;;;;;;;;;;;;17.18;92.55;101335.69;5038185;28;1417;-75
2023/08/04 09:52:04;;;;;;;;;;;;;;;17.20;91.49;101323.25;5036903;28;1373;-75
2023/08/04 09:54:29;;;;;;;;;;;;;;;17.33;92.43;101331.53;5037025;28;1199;-75
2023/08/04 09:56:55;;;;;;;;;;;;;;;17.42;90.54;101332.38;5037368;28;1211;-75
2023/08/04 09:59:21;;;;;;;;;;;;;;;17.38;87.63;101347.59;5039898;28;1410;-75
2023/08/04 10:01:46;;;;;;;;;;;;;;;17.33;89.22;101334.13;5039016;28;1179;-76
2023/08/04 10:04:12;;;;;;;;;;;;;;;17.36;89.65;101330.38;5034762;28;1540;-75
2023/08/04 10:06:38;;;;;;;;;;;;;;;17.36;89.79;101331.19;5034421;28;1965;-75
2023/08/04 10:09:03;;;;;;;;;;;;;;;17.49;90.45;101323.72;5036388;28;1224;-74
2023/08/04 10:11:29;;;;;;;;;;;;;;;17.67;89.24;101328.88;5044703;28;1204;-75
2023/08/04 10:13:55;;;;;;;;;;;;;;;17.69;90.79;101328.69;5039633;28;1319;-74
2023/08/04 10:16:23;;;;;;;;;;;;;;;17.80;91.12;101331.06;5041240;28;1333;-75
2023/08/04 10:18:56;;;;;;;;;;;;;;;17.92;89.00;101329.78;5037717;28;1332;-75
2023/08/04 10:21:25;;;;;;;;;;;;;;;18.02;88.67;101335.72;5039698;28;1209;-75
2023/08/04 10:23:51;;;;;;;;;;;;;;;18.20;84.96;101342.63;5039803;28;1387;-75
2023/08/04 10:26:16;;;;;;;;;;;;;;;18.18;81.54;101339.31;5037801;28;2004;-75
2023/08/04 10:29:02;;;;;;;;;;;;;;;18.14;80.68;101344.09;5036607;28;1445;-74
2023/08/04 10:31:42;;;;;;;;;;;;;;;18.19;84.11;101347.06;5027206;28;1476;-74
2023/08/04 10:34:17;;;;;;;;;;;;;;;18.38;83.52;101340.66;5035127;28;1589;-74
2023/08/04 10:36:58;;;;;;;;;;;;;;;18.37;83.17;101341.66;5041780;28;1117;-75
2023/08/04 10:39:28;;;;;;;;;;;;;;;18.34;82.98;101334.09;5038292;28;1077;-73
2023/08/04 10:41:53;;;;;;;;;;;;;;;18.35;84.11;101335.75;5042349;28;1167;-74
2023/08/04 10:44:18;;;;;;;;;;;;;;;18.42;84.03;101339.38;5038204;28;1609;-72
2023/08/04 10:46:47;;;;;;;;;;;;;;;18.46;82.08;101337.22;5038346;28;1902;-74
2023/08/04 10:49:12;;;;;;;;;;;;;;;18.47;81.64;101344.13;5036670;28;1085;-75
2023/08/04 10:51:37;;;;;;;;;;;;;;;18.54;81.04;101340.69;5040217;28;1486;-74
2023/08/04 10:54:02;;;;;;;;;;;;;;;18.62;82.34;101346.91;5040425;28;1174;-74
2023/08/04 10:56:28;;;;;;;;;;;;;;;18.71;80.06;101345.97;5033429;28;1089;-74
2023/08/04 10:58:53;;;;;;;;;;;;;;;18.73;78.23;101343.97;5039511;28;1335;-73
2023/08/04 11:01:18;;;;;;;;;;;;;;;18.76;77.17;101348.91;5036834;28;1385;-73
2023/08/04 11:03:47;;;;;;;;;;;;;;;18.82;77.95;101348.25;5039805;28;1260;-74
2023/08/04 11:06:12;;;;;;;;;;;;;;;18.92;78.57;101348.88;5039342;28;1906;-74
2023/08/04 11:08:37;;;;;;;;;;;;;;;18.98;78.80;101353.50;5038998;28;1291;-73
2023/08/04 11:11:03;;;;;;;;;;;;;;;18.93;76.43;101360.22;5037648;28;1608;-74
2023/08/04 11:13:28;;;;;;;;;;;;;;;18.92;77.89;101348.88;5035520;28;1084;-73
2023/08/04 11:15:53;;;;;;;;;;;;;;;19.04;77.20;101354.63;5037549;28;1248;-74
2023/08/04 11:18:25;;;;;;;;;;;;;;;19.16;77.92;101357.72;5034077;28;1731;-73
2023/08/04 11:20:51;;;;;;;;;;;;;;;19.21;76.15;101365.91;5037228;28;1890;-74
2023/08/04 11:23:22;;;;;;;;;;;;;;;19.32;76.08;101370.81;5039190;28;1239;-74
2023/08/04 11:25:47;;;;;;;;;;;;;;;19.27;75.92;101367.88;5035384;28;1894;-75
2023/08/04 11:28:13;;;;;;;;;;;;;;;19.34;74.88;101368.84;5045682;28;1416;-74
2023/08/04 11:30:38;;;;;;;;;;;;;;;19.40;74.99;101378.69;5039398;28;1348;-74
2023/08/04 11:33:06;;;;;;;;;;;;;;;19.34;74.49;101384.63;5036900;28;1370;-73
2023/08/04 11:35:32;;;;;;;;;;;;;;;19.09;76.26;101387.28;5030323;28;1243;-73
2023/08/04 11:37:57;;;;;;;;;;;;;;;18.43;80.15;101404.03;5038388;28;1253;-71
2023/08/04 11:40:23;;;;;;;;;;;;;;;18.20;81.53;101400.38;5035890;28;1223;-73
2023/08/04 11:42:49;;;;;;;;;;;;;;;18.02;81.72;101401.34;5034705;28;1316;-72
2023/08/04 11:45:14;;;;;;;;;;;;;;;17.92;81.52;101392.75;5032678;28;1228;-73
2023/08/04 11:47:39;;;;;;;;;;;;;;;17.83;83.41;101388.47;5040247;28;1882;-73
2023/08/04 11:50:05;;;;;;;;;;;;;;;17.83;83.33;101393.72;5037715;28;1304;-72
2023/08/04 11:52:30;;;;;;;;;;;;;;;17.90;84.68;101384.25;5030764;28;1581;-74
2023/08/04 11:54:59;;;;;;;;;;;;;;;17.97;84.80;101393.13;5030210;28;1401;-72
2023/08/04 11:57:27;;;;;;;;;;;;;;;17.99;84.90;101387.69;5037142;28;1120;-74
2023/08/04 11:59:53;;;;;;;;;;;;;;;18.04;86.25;101396.72;5036672;28;1418;-73
2023/08/04 12:02:18;;;;;;;;;;;;;;;18.23;87.34;101386.94;5041106;28;1324;-74
2023/08/04 12:04:43;;;;;;;;;;;;;;;18.42;85.51;101389.28;5044058;28;1071;-73
2023/08/04 12:07:09;;;;;;;;;;;;;;;18.42;86.58;101385.81;5039605;28;1963;-74
2023/08/04 12:09:34;;;;;;;;;;;;;;;18.56;89.15;101391.25;5038632;28;1224;-73
2023/08/04 12:12:00;;;;;;;;;;;;;;;18.76;87.47;101391.78;5045584;28;1297;-74
2023/08/04 12:14:26;;;;;;;;;;;;;;;18.95;89.03;101395.88;5034371;28;1451;-74
2023/08/04 12:16:55;;;;;;;;;;;;;;;19.12;89.08;101398.47;5038160;28;1309;-72
2023/08/04 12:19:21;;;;;;;;;;;;;;;19.24;87.96;101399.75;5040980;28;1211;-74
2023/08/04 12:21:47;;;;;;;;;;;;;;;19.36;88.21;101398.41;5037188;28;1215;-74
2023/08/04 12:24:12;;;;;;;;;;;;;;;19.47;87.47;101392.78;5040655;28;1415;-74
2023/08/04 12:26:38;;;;;;;;;;;;;;;19.55;88.27;101398.00;5043979;28;1906;-74
2023/08/04 12:29:03;;;;;;;;;;;;;;;19.62;88.12;101385.88;5041794;28;1263;-75
2023/08/04 12:31:28;;;;;;;;;;;;;;;19.71;87.51;101391.09;5041800;28;1324;-73
2023/08/04 12:33:53;;;;;;;;;;;;;;;19.82;87.42;101388.91;5036457;28;1363;-73